sensor_id;sensor_type;location;lat;lon;timestamp;temperature;humidity
59469;DHT22;45277;52.768;18.262;2023-02-26T00:00:31;0.70;99.90
59469;DHT22;45277;52.768;18.262;2023-02-26T00:02:22;0.70;99.90
59469;DHT22;45277;52.768;18.262;2023-02-26T00:03:56;0.70;99.90
59469;DHT22;45277;52.768;18.262;2023-02-26T00:05:28;0.70;99.90
59469;DHT22;45277;52.768;18.262;2023-02-26T00:06:59;0.70;99.90
59469;DHT22;45277;52.768;18.262;2023-02-26T00:08:31;0.70;99.90
59469;DHT22;45277;52.768;18.262;2023-02-26T00:10:05;0.70;99.90
59469;DHT22;45277;52.768;18.262;2023-02-26T00:11:37;0.70;99.90
59469;DHT22;45277;52.768;18.262;2023-02-26T00:13:10;0.80;99.90
59469;DHT22;45277;52.768;18.262;2023-02-26T00:14:41;0.80;99.90
59469;DHT22;45277;52.768;18.262;2023-02-26T00:16:40;0.70;99.90
59469;DHT22;45277;52.768;18.262;2023-02-26T00:18:13;0.80;99.90
59469;DHT22;45277;52.768;18.262;2023-02-26T00:19:45;0.80;99.90
59469;DHT22;45277;52.768;18.262;2023-02-26T00:21:19;0.80;99.90
59469;DHT22;45277;52.768;18.262;2023-02-26T00:22:51;0.70;99.90
59469;DHT22;45277;52.768;18.262;2023-02-26T00:24:23;0.70;99.90
59469;DHT22;45277;52.768;18.262;2023-02-26T00:25:54;0.60;99.90
59469;DHT22;45277;52.768;18.262;2023-02-26T00:27:27;0.60;99.90
59469;DHT22;45277;52.768;18.262;2023-02-26T00:28:59;0.60;99.90
59469;DHT22;45277;52.768;18.262;2023-02-26T00:30:31;0.50;99.90
59469;DHT22;45277;52.768;18.262;2023-02-26T00:32:03;0.60;99.90
59469;DHT22;45277;52.768;18.262;2023-02-26T00:33:35;0.60;99.90
59469;DHT22;45277;52.768;18.262;2023-02-26T00:35:11;0.60;99.90
59469;DHT22;45277;52.768;18.262;2023-02-26T00:38:17;0.50;99.90
59469;DHT22;45277;52.768;18.262;2023-02-26T00:40:09;0.50;99.90
59469;DHT22;45277;52.768;18.262;2023-02-26T00:41:43;0.40;99.90
59469;DHT22;45277;52.768;18.262;2023-02-26T00:43:22;0.40;99.90
59469;DHT22;45277;52.768;18.262;2023-02-26T00:44:54;0.30;99.90
59469;DHT22;45277;52.768;18.262;2023-02-26T00:50:18;0.30;99.90
59469;DHT22;45277;52.768;18.262;2023-02-26T00:51:58;0.30;99.90
59469;DHT22;45277;52.768;18.262;2023-02-26T00:53:51;0.30;99.90
59469;DHT22;45277;52.768;18.262;2023-02-26T00:55:23;0.30;99.90
59469;DHT22;45277;52.768;18.262;2023-02-26T00:56:57;0.40;99.90
59469;DHT22;45277;52.768;18.262;2023-02-26T00:58:28;0.50;99.90
59469;DHT22;45277;52.768;18.262;2023-02-26T01:00:00;0.50;99.90
59469;DHT22;45277;52.768;18.262;2023-02-26T01:01:32;0.50;99.90
59469;DHT22;45277;52.768;18.262;2023-02-26T01:03:03;0.40;99.90
59469;DHT22;45277;52.768;18.262;2023-02-26T01:04:36;0.50;99.90
59469;DHT22;45277;52.768;18.262;2023-02-26T01:06:16;0.40;99.90
59469;DHT22;45277;52.768;18.262;2023-02-26T01:08:09;0.40;99.90
59469;DHT22;45277;52.768;18.262;2023-02-26T01:09:42;0.40;99.90
59469;DHT22;45277;52.768;18.262;2023-02-26T01:11:14;0.40;99.90
59469;DHT22;45277;52.768;18.262;2023-02-26T01:12:46;0.40;99.90
59469;DHT22;45277;52.768;18.262;2023-02-26T01:14:18;0.50;99.90
59469;DHT22;45277;52.768;18.262;2023-02-26T01:15:58;0.50;99.90
59469;DHT22;45277;52.768;18.262;2023-02-26T01:17:46;0.50;99.90
59469;DHT22;45277;52.768;18.262;2023-02-26T01:21:04;0.60;99.90
59469;DHT22;45277;52.768;18.262;2023-02-26T01:24:22;0.70;99.90
59469;DHT22;45277;52.768;18.262;2023-02-26T01:26:26;0.70;99.90
59469;DHT22;45277;52.768;18.262;2023-02-26T01:27:56;0.60;99.90
59469;DHT22;45277;52.768;18.262;2023-02-26T01:29:28;0.60;99.90
59469;DHT22;45277;52.768;18.262;2023-02-26T01:31:02;0.60;99.90
59469;DHT22;45277;52.768;18.262;2023-02-26T01:32:47;0.70;99.90
59469;DHT22;45277;52.768;18.262;2023-02-26T01:36:12;0.60;99.90
59469;DHT22;45277;52.768;18.262;2023-02-26T01:39:45;0.60;99.90
59469;DHT22;45277;52.768;18.262;2023-02-26T01:43:04;0.50;99.90
59469;DHT22;45277;52.768;18.262;2023-02-26T01:46:48;0.40;99.90
59469;DHT22;45277;52.768;18.262;2023-02-26T01:48:37;0.40;99.90
59469;DHT22;45277;52.768;18.262;2023-02-26T01:50:20;0.40;99.90
59469;DHT22;45277;52.768;18.262;2023-02-26T01:51:55;0.30;99.90
59469;DHT22;45277;52.768;18.262;2023-02-26T01:53:27;0.30;99.90
59469;DHT22;45277;52.768;18.262;2023-02-26T01:54:58;0.20;99.90
59469;DHT22;45277;52.768;18.262;2023-02-26T01:56:30;0.10;99.90
59469;DHT22;45277;52.768;18.262;2023-02-26T01:58:02;0.10;99.90
59469;DHT22;45277;52.768;18.262;2023-02-26T01:59:46;0.00;99.90
59469;DHT22;45277;52.768;18.262;2023-02-26T02:01:18;0.00;99.90
59469;DHT22;45277;52.768;18.262;2023-02-26T02:02:50;0.00;99.90
59469;DHT22;45277;52.768;18.262;2023-02-26T02:04:22;0.00;99.90
59469;DHT22;45277;52.768;18.262;2023-02-26T02:05:57;0.00;99.90
59469;DHT22;45277;52.768;18.262;2023-02-26T02:07:30;-0.10;99.90
59469;DHT22;45277;52.768;18.262;2023-02-26T02:09:04;-0.10;99.90
59469;DHT22;45277;52.768;18.262;2023-02-26T02:10:42;-0.10;99.90
59469;DHT22;45277;52.768;18.262;2023-02-26T02:22:54;-0.10;99.90
59469;DHT22;45277;52.768;18.262;2023-02-26T02:29:19;-0.10;99.90
59469;DHT22;45277;52.768;18.262;2023-02-26T02:32:21;0.00;99.90
59469;DHT22;45277;52.768;18.262;2023-02-26T02:34:28;0.00;99.90
59469;DHT22;45277;52.768;18.262;2023-02-26T02:36:15;0.00;99.90
59469;DHT22;45277;52.768;18.262;2023-02-26T02:38:15;0.00;99.90
59469;DHT22;45277;52.768;18.262;2023-02-26T02:39:48;-0.10;99.90
59469;DHT22;45277;52.768;18.262;2023-02-26T02:41:28;-0.10;99.90
59469;DHT22;45277;52.768;18.262;2023-02-26T02:43:15;-0.10;99.90
59469;DHT22;45277;52.768;18.262;2023-02-26T02:44:52;-0.10;99.90
59469;DHT22;45277;52.768;18.262;2023-02-26T02:46:29;-0.20;99.90
59469;DHT22;45277;52.768;18.262;2023-02-26T02:50:01;-0.10;99.90
59469;DHT22;45277;52.768;18.262;2023-02-26T02:55:36;-0.20;99.90
59469;DHT22;45277;52.768;18.262;2023-02-26T02:57:16;-0.30;99.90
59469;DHT22;45277;52.768;18.262;2023-02-26T02:58:57;-0.30;99.90
59469;DHT22;45277;52.768;18.262;2023-02-26T03:00:31;-0.30;99.90
59469;DHT22;45277;52.768;18.262;2023-02-26T03:04:28;-0.40;99.90
59469;DHT22;45277;52.768;18.262;2023-02-26T03:06:00;-0.40;99.90
59469;DHT22;45277;52.768;18.262;2023-02-26T03:07:37;-0.40;99.90
59469;DHT22;45277;52.768;18.262;2023-02-26T03:09:10;-0.40;99.90
59469;DHT22;45277;52.768;18.262;2023-02-26T03:10:42;-0.40;99.90
59469;DHT22;45277;52.768;18.262;2023-02-26T03:12:13;-0.40;99.90
59469;DHT22;45277;52.768;18.262;2023-02-26T03:13:46;-0.40;99.90
59469;DHT22;45277;52.768;18.262;2023-02-26T03:15:27;-0.30;99.90
59469;DHT22;45277;52.768;18.262;2023-02-26T03:17:24;-0.30;99.90
59469;DHT22;45277;52.768;18.262;2023-02-26T03:19:28;-0.20;99.90
59469;DHT22;45277;52.768;18.262;2023-02-26T03:26:28;0.00;99.90
59469;DHT22;45277;52.768;18.262;2023-02-26T03:30:07;0.00;99.90
59469;DHT22;45277;52.768;18.262;2023-02-26T03:32:07;0.10;99.90
59469;DHT22;45277;52.768;18.262;2023-02-26T03:34:26;0.00;99.90
59469;DHT22;45277;52.768;18.262;2023-02-26T03:36:09;0.10;99.90
59469;DHT22;45277;52.768;18.262;2023-02-26T03:37:48;0.10;99.90
59469;DHT22;45277;52.768;18.262;2023-02-26T03:39:28;0.20;99.90
59469;DHT22;45277;52.768;18.262;2023-02-26T03:41:15;0.20;99.90
59469;DHT22;45277;52.768;18.262;2023-02-26T03:43:24;0.20;99.90
59469;DHT22;45277;52.768;18.262;2023-02-26T03:45:00;0.20;99.90
59469;DHT22;45277;52.768;18.262;2023-02-26T03:46:37;0.20;99.90
59469;DHT22;45277;52.768;18.262;2023-02-26T03:48:13;0.20;99.90
59469;DHT22;45277;52.768;18.262;2023-02-26T03:49:58;0.20;99.90
59469;DHT22;45277;52.768;18.262;2023-02-26T03:51:30;0.20;99.90
59469;DHT22;45277;52.768;18.262;2023-02-26T03:53:05;0.20;99.90
59469;DHT22;45277;52.768;18.262;2023-02-26T03:54:42;0.20;99.90
59469;DHT22;45277;52.768;18.262;2023-02-26T03:56:21;0.20;99.90
59469;DHT22;45277;52.768;18.262;2023-02-26T03:57:55;0.20;99.90
59469;DHT22;45277;52.768;18.262;2023-02-26T03:59:26;0.20;99.90
59469;DHT22;45277;52.768;18.262;2023-02-26T04:01:05;0.20;99.90
59469;DHT22;45277;52.768;18.262;2023-02-26T04:04:47;0.20;99.90
59469;DHT22;45277;52.768;18.262;2023-02-26T04:06:21;0.20;99.90
59469;DHT22;45277;52.768;18.262;2023-02-26T04:07:54;0.20;99.90
59469;DHT22;45277;52.768;18.262;2023-02-26T04:09:27;0.20;99.90
59469;DHT22;45277;52.768;18.262;2023-02-26T04:11:04;0.20;99.90
59469;DHT22;45277;52.768;18.262;2023-02-26T04:12:36;0.20;99.90
59469;DHT22;45277;52.768;18.262;2023-02-26T04:14:07;0.20;99.90
59469;DHT22;45277;52.768;18.262;2023-02-26T04:15:39;0.20;99.90
59469;DHT22;45277;52.768;18.262;2023-02-26T04:17:10;0.20;99.90
59469;DHT22;45277;52.768;18.262;2023-02-26T04:18:42;0.20;99.90
59469;DHT22;45277;52.768;18.262;2023-02-26T04:20:13;0.20;99.90
59469;DHT22;45277;52.768;18.262;2023-02-26T04:21:45;0.20;99.90
59469;DHT22;45277;52.768;18.262;2023-02-26T04:23:16;0.20;99.90
59469;DHT22;45277;52.768;18.262;2023-02-26T04:24:49;0.20;99.90
59469;DHT22;45277;52.768;18.262;2023-02-26T04:26:20;0.20;99.90
59469;DHT22;45277;52.768;18.262;2023-02-26T04:27:52;0.10;99.90
59469;DHT22;45277;52.768;18.262;2023-02-26T04:29:24;0.20;99.90
59469;DHT22;45277;52.768;18.262;2023-02-26T04:30:55;0.10;99.90
59469;DHT22;45277;52.768;18.262;2023-02-26T04:32:26;0.10;99.90
59469;DHT22;45277;52.768;18.262;2023-02-26T04:33:58;0.10;99.90
59469;DHT22;45277;52.768;18.262;2023-02-26T04:35:30;0.10;99.90
59469;DHT22;45277;52.768;18.262;2023-02-26T04:37:01;0.10;99.90
59469;DHT22;45277;52.768;18.262;2023-02-26T04:38:33;0.10;99.90
59469;DHT22;45277;52.768;18.262;2023-02-26T04:40:05;0.10;99.90
59469;DHT22;45277;52.768;18.262;2023-02-26T04:41:37;0.10;99.90
59469;DHT22;45277;52.768;18.262;2023-02-26T04:43:09;0.10;99.90
59469;DHT22;45277;52.768;18.262;2023-02-26T04:44:40;0.00;99.90
59469;DHT22;45277;52.768;18.262;2023-02-26T04:46:12;0.00;99.90
59469;DHT22;45277;52.768;18.262;2023-02-26T04:47:43;0.00;99.90
59469;DHT22;45277;52.768;18.262;2023-02-26T04:49:15;0.00;99.90
59469;DHT22;45277;52.768;18.262;2023-02-26T04:50:46;0.00;99.90
59469;DHT22;45277;52.768;18.262;2023-02-26T04:52:18;0.00;99.90
59469;DHT22;45277;52.768;18.262;2023-02-26T04:53:49;0.00;99.90
59469;DHT22;45277;52.768;18.262;2023-02-26T04:55:21;0.00;99.90
59469;DHT22;45277;52.768;18.262;2023-02-26T04:56:52;0.00;99.90
59469;DHT22;45277;52.768;18.262;2023-02-26T04:58:24;0.00;99.90
59469;DHT22;45277;52.768;18.262;2023-02-26T04:59:55;0.10;99.90
59469;DHT22;45277;52.768;18.262;2023-02-26T05:01:26;0.10;99.90
59469;DHT22;45277;52.768;18.262;2023-02-26T05:02:58;0.10;99.90
59469;DHT22;45277;52.768;18.262;2023-02-26T05:04:29;0.10;99.90
59469;DHT22;45277;52.768;18.262;2023-02-26T05:06:01;0.10;99.90
59469;DHT22;45277;52.768;18.262;2023-02-26T05:07:32;0.10;99.90
59469;DHT22;45277;52.768;18.262;2023-02-26T05:09:04;0.10;99.90
59469;DHT22;45277;52.768;18.262;2023-02-26T05:10:35;0.20;99.90
59469;DHT22;45277;52.768;18.262;2023-02-26T05:12:07;0.10;99.90
59469;DHT22;45277;52.768;18.262;2023-02-26T05:13:38;0.10;99.90
59469;DHT22;45277;52.768;18.262;2023-02-26T05:15:10;0.10;99.90
59469;DHT22;45277;52.768;18.262;2023-02-26T05:16:42;0.10;99.90
59469;DHT22;45277;52.768;18.262;2023-02-26T05:18:13;0.10;99.90
59469;DHT22;45277;52.768;18.262;2023-02-26T05:19:45;0.10;99.90
59469;DHT22;45277;52.768;18.262;2023-02-26T05:21:16;0.10;99.90
59469;DHT22;45277;52.768;18.262;2023-02-26T05:22:47;0.00;99.90
59469;DHT22;45277;52.768;18.262;2023-02-26T05:24:19;0.00;99.90
59469;DHT22;45277;52.768;18.262;2023-02-26T05:25:50;0.10;99.90
59469;DHT22;45277;52.768;18.262;2023-02-26T05:27:21;0.10;99.90
59469;DHT22;45277;52.768;18.262;2023-02-26T05:28:53;0.10;99.90
59469;DHT22;45277;52.768;18.262;2023-02-26T05:30:24;0.10;99.90
59469;DHT22;45277;52.768;18.262;2023-02-26T05:31:56;0.10;99.90
59469;DHT22;45277;52.768;18.262;2023-02-26T05:33:27;0.20;99.90
59469;DHT22;45277;52.768;18.262;2023-02-26T05:34:59;0.10;99.90
59469;DHT22;45277;52.768;18.262;2023-02-26T05:36:30;0.10;99.90
59469;DHT22;45277;52.768;18.262;2023-02-26T05:38:02;0.10;99.90
59469;DHT22;45277;52.768;18.262;2023-02-26T05:39:33;0.10;99.90
59469;DHT22;45277;52.768;18.262;2023-02-26T05:41:05;0.10;99.90
59469;DHT22;45277;52.768;18.262;2023-02-26T05:42:38;0.10;99.90
59469;DHT22;45277;52.768;18.262;2023-02-26T05:44:09;0.00;99.90
59469;DHT22;45277;52.768;18.262;2023-02-26T05:45:40;0.00;99.90
59469;DHT22;45277;52.768;18.262;2023-02-26T05:47:12;0.00;99.90
59469;DHT22;45277;52.768;18.262;2023-02-26T05:48:44;0.00;99.90
59469;DHT22;45277;52.768;18.262;2023-02-26T05:50:15;0.00;99.90
59469;DHT22;45277;52.768;18.262;2023-02-26T05:51:47;0.00;99.90
59469;DHT22;45277;52.768;18.262;2023-02-26T05:53:18;0.00;99.90
59469;DHT22;45277;52.768;18.262;2023-02-26T05:54:50;0.00;99.90
59469;DHT22;45277;52.768;18.262;2023-02-26T05:56:21;0.10;99.90
59469;DHT22;45277;52.768;18.262;2023-02-26T05:57:53;0.10;99.90
59469;DHT22;45277;52.768;18.262;2023-02-26T05:59:24;0.10;99.90
59469;DHT22;45277;52.768;18.262;2023-02-26T06:00:57;0.10;99.90
59469;DHT22;45277;52.768;18.262;2023-02-26T06:02:29;0.10;99.90
59469;DHT22;45277;52.768;18.262;2023-02-26T06:04:00;0.10;99.90
59469;DHT22;45277;52.768;18.262;2023-02-26T06:05:32;0.10;99.90
59469;DHT22;45277;52.768;18.262;2023-02-26T06:07:04;0.20;99.90
59469;DHT22;45277;52.768;18.262;2023-02-26T06:08:35;0.20;99.90
59469;DHT22;45277;52.768;18.262;2023-02-26T06:10:08;0.20;99.90
59469;DHT22;45277;52.768;18.262;2023-02-26T06:11:40;0.20;99.90
59469;DHT22;45277;52.768;18.262;2023-02-26T06:13:11;0.20;99.90
59469;DHT22;45277;52.768;18.262;2023-02-26T06:14:43;0.20;99.90
59469;DHT22;45277;52.768;18.262;2023-02-26T06:16:14;0.30;99.90
59469;DHT22;45277;52.768;18.262;2023-02-26T06:17:45;0.30;99.90
59469;DHT22;45277;52.768;18.262;2023-02-26T06:19:17;0.30;99.90
59469;DHT22;45277;52.768;18.262;2023-02-26T06:20:49;0.40;99.90
59469;DHT22;45277;52.768;18.262;2023-02-26T06:22:20;0.40;99.90
59469;DHT22;45277;52.768;18.262;2023-02-26T06:23:52;0.40;99.90
59469;DHT22;45277;52.768;18.262;2023-02-26T06:25:23;0.40;99.90
59469;DHT22;45277;52.768;18.262;2023-02-26T06:26:54;0.50;99.90
59469;DHT22;45277;52.768;18.262;2023-02-26T06:28:26;0.50;99.90
59469;DHT22;45277;52.768;18.262;2023-02-26T06:29:57;0.50;99.90
59469;DHT22;45277;52.768;18.262;2023-02-26T06:31:29;0.50;99.90
59469;DHT22;45277;52.768;18.262;2023-02-26T06:33:00;0.50;99.90
59469;DHT22;45277;52.768;18.262;2023-02-26T06:34:32;0.50;99.90
59469;DHT22;45277;52.768;18.262;2023-02-26T06:36:04;0.60;99.90
59469;DHT22;45277;52.768;18.262;2023-02-26T06:37:35;0.60;99.90
59469;DHT22;45277;52.768;18.262;2023-02-26T06:39:07;0.60;99.90
59469;DHT22;45277;52.768;18.262;2023-02-26T06:40:38;0.60;99.90
59469;DHT22;45277;52.768;18.262;2023-02-26T06:42:10;0.60;99.90
59469;DHT22;45277;52.768;18.262;2023-02-26T06:43:41;0.70;99.90
59469;DHT22;45277;52.768;18.262;2023-02-26T06:45:13;0.70;99.90
59469;DHT22;45277;52.768;18.262;2023-02-26T06:46:44;0.70;99.90
59469;DHT22;45277;52.768;18.262;2023-02-26T06:48:16;0.70;99.90
59469;DHT22;45277;52.768;18.262;2023-02-26T06:49:47;0.70;99.90
59469;DHT22;45277;52.768;18.262;2023-02-26T06:51:19;0.70;99.90
59469;DHT22;45277;52.768;18.262;2023-02-26T06:52:50;0.70;99.90
59469;DHT22;45277;52.768;18.262;2023-02-26T06:54:22;0.80;99.90
59469;DHT22;45277;52.768;18.262;2023-02-26T06:55:53;0.80;99.90
59469;DHT22;45277;52.768;18.262;2023-02-26T06:57:25;0.80;99.90
59469;DHT22;45277;52.768;18.262;2023-02-26T06:58:56;0.80;99.90
59469;DHT22;45277;52.768;18.262;2023-02-26T07:00:28;0.80;99.90
59469;DHT22;45277;52.768;18.262;2023-02-26T07:01:59;0.80;99.90
59469;DHT22;45277;52.768;18.262;2023-02-26T07:03:31;0.70;99.90
59469;DHT22;45277;52.768;18.262;2023-02-26T07:05:02;0.70;99.90
59469;DHT22;45277;52.768;18.262;2023-02-26T07:06:34;0.70;99.90
59469;DHT22;45277;52.768;18.262;2023-02-26T07:08:05;0.60;99.90
59469;DHT22;45277;52.768;18.262;2023-02-26T07:09:37;0.60;99.90
59469;DHT22;45277;52.768;18.262;2023-02-26T07:11:09;0.60;99.90
59469;DHT22;45277;52.768;18.262;2023-02-26T07:12:40;0.60;99.90
59469;DHT22;45277;52.768;18.262;2023-02-26T07:14:12;0.60;99.90
59469;DHT22;45277;52.768;18.262;2023-02-26T07:15:44;0.60;99.90
59469;DHT22;45277;52.768;18.262;2023-02-26T07:17:15;0.60;99.90
59469;DHT22;45277;52.768;18.262;2023-02-26T07:18:51;0.70;99.90
59469;DHT22;45277;52.768;18.262;2023-02-26T07:20:22;0.80;99.90
59469;DHT22;45277;52.768;18.262;2023-02-26T07:21:54;0.90;99.90
59469;DHT22;45277;52.768;18.262;2023-02-26T07:23:26;1.10;99.90
59469;DHT22;45277;52.768;18.262;2023-02-26T07:24:58;1.20;99.90
59469;DHT22;45277;52.768;18.262;2023-02-26T07:26:30;1.30;99.90
59469;DHT22;45277;52.768;18.262;2023-02-26T07:28:02;1.40;99.90
59469;DHT22;45277;52.768;18.262;2023-02-26T07:29:34;1.50;99.90
59469;DHT22;45277;52.768;18.262;2023-02-26T07:31:06;1.60;99.90
59469;DHT22;45277;52.768;18.262;2023-02-26T07:32:38;1.60;99.90
59469;DHT22;45277;52.768;18.262;2023-02-26T07:34:09;1.60;99.90
59469;DHT22;45277;52.768;18.262;2023-02-26T07:35:41;1.60;99.90
59469;DHT22;45277;52.768;18.262;2023-02-26T07:37:13;1.70;99.90
59469;DHT22;45277;52.768;18.262;2023-02-26T07:38:45;1.60;99.90
59469;DHT22;45277;52.768;18.262;2023-02-26T07:40:16;1.60;99.90
59469;DHT22;45277;52.768;18.262;2023-02-26T07:41:48;1.60;99.90
59469;DHT22;45277;52.768;18.262;2023-02-26T07:43:19;1.60;99.90
59469;DHT22;45277;52.768;18.262;2023-02-26T07:44:51;1.60;99.90
59469;DHT22;45277;52.768;18.262;2023-02-26T07:46:22;1.60;99.90
59469;DHT22;45277;52.768;18.262;2023-02-26T07:47:54;1.60;99.90
59469;DHT22;45277;52.768;18.262;2023-02-26T07:49:26;1.70;99.90
59469;DHT22;45277;52.768;18.262;2023-02-26T07:50:57;1.70;99.90
59469;DHT22;45277;52.768;18.262;2023-02-26T07:52:29;1.70;99.90
59469;DHT22;45277;52.768;18.262;2023-02-26T07:54:00;1.60;99.90
59469;DHT22;45277;52.768;18.262;2023-02-26T07:55:32;1.60;99.90
59469;DHT22;45277;52.768;18.262;2023-02-26T07:57:04;1.60;99.90
59469;DHT22;45277;52.768;18.262;2023-02-26T07:58:35;1.70;99.90
59469;DHT22;45277;52.768;18.262;2023-02-26T08:00:08;1.70;99.90
59469;DHT22;45277;52.768;18.262;2023-02-26T08:01:39;1.60;99.90
59469;DHT22;45277;52.768;18.262;2023-02-26T08:03:11;1.70;99.90
59469;DHT22;45277;52.768;18.262;2023-02-26T08:04:43;1.70;99.90
59469;DHT22;45277;52.768;18.262;2023-02-26T08:06:14;1.70;99.90
59469;DHT22;45277;52.768;18.262;2023-02-26T08:07:46;1.60;99.90
59469;DHT22;45277;52.768;18.262;2023-02-26T08:09:17;1.70;99.90
59469;DHT22;45277;52.768;18.262;2023-02-26T08:10:49;1.80;99.90
59469;DHT22;45277;52.768;18.262;2023-02-26T08:12:20;1.80;99.90
59469;DHT22;45277;52.768;18.262;2023-02-26T08:13:52;1.90;99.90
59469;DHT22;45277;52.768;18.262;2023-02-26T08:15:23;1.90;99.90
59469;DHT22;45277;52.768;18.262;2023-02-26T08:16:55;1.90;99.90
59469;DHT22;45277;52.768;18.262;2023-02-26T08:18:26;1.80;99.90
59469;DHT22;45277;52.768;18.262;2023-02-26T08:19:58;1.80;99.90
59469;DHT22;45277;52.768;18.262;2023-02-26T08:21:29;1.90;99.90
59469;DHT22;45277;52.768;18.262;2023-02-26T08:23:01;1.90;99.90
59469;DHT22;45277;52.768;18.262;2023-02-26T08:24:33;2.00;99.90
59469;DHT22;45277;52.768;18.262;2023-02-26T08:26:08;2.00;99.90
59469;DHT22;45277;52.768;18.262;2023-02-26T08:27:40;2.10;99.90
59469;DHT22;45277;52.768;18.262;2023-02-26T08:29:12;2.00;99.90
59469;DHT22;45277;52.768;18.262;2023-02-26T08:30:44;2.00;99.90
59469;DHT22;45277;52.768;18.262;2023-02-26T08:32:17;1.90;99.90
59469;DHT22;45277;52.768;18.262;2023-02-26T08:33:49;1.90;99.90
59469;DHT22;45277;52.768;18.262;2023-02-26T08:35:22;1.90;99.90
59469;DHT22;45277;52.768;18.262;2023-02-26T08:36:54;1.90;99.90
59469;DHT22;45277;52.768;18.262;2023-02-26T08:38:27;1.90;99.90
59469;DHT22;45277;52.768;18.262;2023-02-26T08:39:59;1.90;99.90
59469;DHT22;45277;52.768;18.262;2023-02-26T08:41:31;1.90;99.90
59469;DHT22;45277;52.768;18.262;2023-02-26T08:43:02;1.90;99.90
59469;DHT22;45277;52.768;18.262;2023-02-26T08:44:34;1.80;99.90
59469;DHT22;45277;52.768;18.262;2023-02-26T08:46:06;1.80;99.90
59469;DHT22;45277;52.768;18.262;2023-02-26T08:47:38;1.70;99.90
59469;DHT22;45277;52.768;18.262;2023-02-26T08:49:11;1.70;99.90
59469;DHT22;45277;52.768;18.262;2023-02-26T08:50:43;1.70;99.90
59469;DHT22;45277;52.768;18.262;2023-02-26T08:52:14;1.70;99.90
59469;DHT22;45277;52.768;18.262;2023-02-26T08:53:46;1.70;99.90
59469;DHT22;45277;52.768;18.262;2023-02-26T08:55:18;1.70;99.90
59469;DHT22;45277;52.768;18.262;2023-02-26T08:56:49;1.70;99.90
59469;DHT22;45277;52.768;18.262;2023-02-26T08:58:21;1.70;99.90
59469;DHT22;45277;52.768;18.262;2023-02-26T08:59:53;1.80;99.90
59469;DHT22;45277;52.768;18.262;2023-02-26T09:01:25;1.90;99.90
59469;DHT22;45277;52.768;18.262;2023-02-26T09:03:00;2.10;99.90
59469;DHT22;45277;52.768;18.262;2023-02-26T09:04:32;2.20;99.90
59469;DHT22;45277;52.768;18.262;2023-02-26T09:06:04;2.40;99.90
59469;DHT22;45277;52.768;18.262;2023-02-26T09:07:35;2.40;99.90
59469;DHT22;45277;52.768;18.262;2023-02-26T09:09:08;2.40;99.90
59469;DHT22;45277;52.768;18.262;2023-02-26T09:10:40;2.20;99.90
59469;DHT22;45277;52.768;18.262;2023-02-26T09:14:54;2.00;99.90
59469;DHT22;45277;52.768;18.262;2023-02-26T09:16:29;1.80;99.90
59469;DHT22;45277;52.768;18.262;2023-02-26T09:18:02;1.70;99.90
59469;DHT22;45277;52.768;18.262;2023-02-26T09:19:37;1.60;99.90
59469;DHT22;45277;52.768;18.262;2023-02-26T09:21:09;1.50;99.90
59469;DHT22;45277;52.768;18.262;2023-02-26T09:22:42;1.60;99.90
59469;DHT22;45277;52.768;18.262;2023-02-26T09:24:17;1.60;99.90
59469;DHT22;45277;52.768;18.262;2023-02-26T09:25:53;1.60;99.90
59469;DHT22;45277;52.768;18.262;2023-02-26T09:27:25;1.50;99.90
59469;DHT22;45277;52.768;18.262;2023-02-26T09:28:57;1.50;99.90
59469;DHT22;45277;52.768;18.262;2023-02-26T09:30:32;1.50;99.90
59469;DHT22;45277;52.768;18.262;2023-02-26T09:32:04;1.50;99.90
59469;DHT22;45277;52.768;18.262;2023-02-26T09:33:38;1.50;99.90
59469;DHT22;45277;52.768;18.262;2023-02-26T09:35:12;1.60;99.90
59469;DHT22;45277;52.768;18.262;2023-02-26T09:36:44;1.70;99.90
59469;DHT22;45277;52.768;18.262;2023-02-26T09:38:17;1.80;99.90
59469;DHT22;45277;52.768;18.262;2023-02-26T09:39:49;2.00;99.90
59469;DHT22;45277;52.768;18.262;2023-02-26T09:41:27;2.10;99.90
59469;DHT22;45277;52.768;18.262;2023-02-26T09:45:09;2.40;99.90
59469;DHT22;45277;52.768;18.262;2023-02-26T09:48:27;2.30;99.90
59469;DHT22;45277;52.768;18.262;2023-02-26T09:50:12;2.30;99.90
59469;DHT22;45277;52.768;18.262;2023-02-26T09:51:52;2.10;99.90
59469;DHT22;45277;52.768;18.262;2023-02-26T09:53:28;2.00;99.90
59469;DHT22;45277;52.768;18.262;2023-02-26T09:55:27;1.90;99.90
59469;DHT22;45277;52.768;18.262;2023-02-26T09:57:00;1.90;99.90
59469;DHT22;45277;52.768;18.262;2023-02-26T09:58:37;1.90;99.90
59469;DHT22;45277;52.768;18.262;2023-02-26T10:04:36;2.50;99.90
59469;DHT22;45277;52.768;18.262;2023-02-26T10:06:43;2.60;99.90
59469;DHT22;45277;52.768;18.262;2023-02-26T10:08:17;2.70;99.90
59469;DHT22;45277;52.768;18.262;2023-02-26T10:11:56;2.90;99.90
59469;DHT22;45277;52.768;18.262;2023-02-26T10:15:41;2.50;99.90
59469;DHT22;45277;52.768;18.262;2023-02-26T10:17:45;2.40;99.90
59469;DHT22;45277;52.768;18.262;2023-02-26T10:19:29;2.40;99.90
59469;DHT22;45277;52.768;18.262;2023-02-26T10:21:14;2.40;99.90
59469;DHT22;45277;52.768;18.262;2023-02-26T10:22:58;2.40;99.90
59469;DHT22;45277;52.768;18.262;2023-02-26T10:24:43;2.50;99.90
59469;DHT22;45277;52.768;18.262;2023-02-26T10:26:21;2.50;99.90
59469;DHT22;45277;52.768;18.262;2023-02-26T10:28:25;2.60;99.90
59469;DHT22;45277;52.768;18.262;2023-02-26T10:32:06;3.00;99.90
59469;DHT22;45277;52.768;18.262;2023-02-26T10:35:16;3.30;99.90
59469;DHT22;45277;52.768;18.262;2023-02-26T10:38:33;3.60;99.90
59469;DHT22;45277;52.768;18.262;2023-02-26T10:40:13;3.70;99.90
59469;DHT22;45277;52.768;18.262;2023-02-26T10:41:47;3.90;99.90
59469;DHT22;45277;52.768;18.262;2023-02-26T10:43:34;4.10;99.90
59469;DHT22;45277;52.768;18.262;2023-02-26T10:45:32;4.20;99.90
59469;DHT22;45277;52.768;18.262;2023-02-26T10:47:17;4.40;99.90
59469;DHT22;45277;52.768;18.262;2023-02-26T10:50:50;4.10;99.90
59469;DHT22;45277;52.768;18.262;2023-02-26T10:52:27;4.40;99.90
59469;DHT22;45277;52.768;18.262;2023-02-26T10:56:25;4.60;99.90
59469;DHT22;45277;52.768;18.262;2023-02-26T10:58:11;4.90;99.90
59469;DHT22;45277;52.768;18.262;2023-02-26T10:59:44;4.70;99.90
59469;DHT22;45277;52.768;18.262;2023-02-26T11:01:18;4.50;99.90
59469;DHT22;45277;52.768;18.262;2023-02-26T11:02:52;4.50;99.90
59469;DHT22;45277;52.768;18.262;2023-02-26T11:04:26;4.40;99.90
59469;DHT22;45277;52.768;18.262;2023-02-26T11:05:59;4.50;99.90
59469;DHT22;45277;52.768;18.262;2023-02-26T11:07:36;4.40;97.60
59469;DHT22;45277;52.768;18.262;2023-02-26T11:09:34;4.40;91.00
59469;DHT22;45277;52.768;18.262;2023-02-26T11:11:07;4.20;72.00
59469;DHT22;45277;52.768;18.262;2023-02-26T11:12:39;4.00;91.30
59469;DHT22;45277;52.768;18.262;2023-02-26T11:14:12;3.90;88.10